createdAt,value
2023-04-27T00:01:13.074Z,2.66
2023-04-27T00:02:34.226Z,2.60
2023-04-27T00:03:56.382Z,2.51
2023-04-27T00:05:18.780Z,2.54
2023-04-27T00:06:41.191Z,2.22
2023-04-27T00:08:03.444Z,2.14
2023-04-27T00:09:26.065Z,1.99
2023-04-27T00:10:47.916Z,2.54
2023-04-27T00:12:12.634Z,2.86
2023-04-27T00:13:34.602Z,3.61
2023-04-27T00:14:56.941Z,3.46
2023-04-27T00:16:18.634Z,3.06
2023-04-27T00:17:40.081Z,2.92
2023-04-27T00:19:01.571Z,2.57
2023-04-27T00:20:23.552Z,2.79
2023-04-27T00:21:45.674Z,2.49
2023-04-27T00:23:07.258Z,1.74
2023-04-27T00:24:28.956Z,2.22
2023-04-27T00:25:51.166Z,2.38
2023-04-27T00:27:14.157Z,2.08
2023-04-27T00:28:36.175Z,1.94
2023-04-27T00:29:58.082Z,2.21
2023-04-27T00:31:20.210Z,1.92
2023-04-27T00:32:41.667Z,2.02
2023-04-27T00:34:03.168Z,2.00
2023-04-27T00:35:25.242Z,2.28
2023-04-27T00:36:47.580Z,2.27
2023-04-27T00:38:09.612Z,2.63
2023-04-27T00:39:33.633Z,2.14
2023-04-27T00:41:06.486Z,2.45
2023-04-27T00:42:28.094Z,2.40
2023-04-27T00:43:50.078Z,2.44
2023-04-27T00:45:11.815Z,2.72
2023-04-27T00:46:33.243Z,3.07
2023-04-27T00:47:54.897Z,2.82
2023-04-27T00:49:17.195Z,2.59
2023-04-27T00:50:39.258Z,2.73
2023-04-27T00:52:01.277Z,2.45
2023-04-27T00:53:23.065Z,2.85
2023-04-27T00:54:44.733Z,2.66
2023-04-27T00:56:07.688Z,2.22
2023-04-27T00:57:28.919Z,2.16
2023-04-27T00:58:51.139Z,2.92
2023-04-27T01:00:14.517Z,2.97
2023-04-27T01:01:36.129Z,2.12
2023-04-27T01:02:57.585Z,2.94
2023-04-27T01:04:19.626Z,2.64
2023-04-27T01:05:41.108Z,2.36
2023-04-27T01:07:03.515Z,2.13
2023-04-27T01:08:26.831Z,2.16
2023-04-27T01:09:49.250Z,2.12
2023-04-27T01:11:11.056Z,2.14
2023-04-27T01:12:34.100Z,2.07
2023-04-27T01:13:56.161Z,2.21
2023-04-27T01:15:18.109Z,2.21
2023-04-27T01:16:39.647Z,2.43
2023-04-27T01:18:01.468Z,2.38
2023-04-27T01:19:23.248Z,2.59
2023-04-27T01:20:44.350Z,2.56
2023-04-27T01:22:06.199Z,2.50
2023-04-27T01:23:28.130Z,2.02
2023-04-27T01:24:49.945Z,2.76
2023-04-27T01:26:11.925Z,2.26
2023-04-27T01:27:33.988Z,2.76
2023-04-27T01:28:56.066Z,2.50
2023-04-27T01:30:17.596Z,2.56
2023-04-27T01:31:39.537Z,2.80
2023-04-27T01:33:01.131Z,2.53
2023-04-27T01:34:22.593Z,2.64
2023-04-27T01:35:44.664Z,2.62
2023-04-27T01:37:06.374Z,2.80
2023-04-27T01:38:29.402Z,2.48
2023-04-27T01:41:13.297Z,2.45
2023-04-27T01:42:35.105Z,2.72
2023-04-27T01:43:57.074Z,2.70
2023-04-27T01:45:18.514Z,2.49
2023-04-27T01:46:41.770Z,2.79
2023-04-27T01:48:04.248Z,2.80
2023-04-27T01:49:26.407Z,2.74
2023-04-27T01:50:48.328Z,2.82
2023-04-27T01:52:11.552Z,2.48
2023-04-27T01:53:32.954Z,3.13
2023-04-27T01:54:55.104Z,2.37
2023-04-27T01:56:16.913Z,2.35
2023-04-27T01:57:38.751Z,2.80
2023-04-27T01:58:59.739Z,2.12
2023-04-27T02:00:21.348Z,2.19
2023-04-27T02:01:43.682Z,2.02
2023-04-27T02:03:05.340Z,2.23
2023-04-27T02:04:27.262Z,2.69
2023-04-27T02:05:49.154Z,2.63
2023-04-27T02:07:11.498Z,2.91
2023-04-27T02:08:34.674Z,2.26
2023-04-27T02:09:57.092Z,1.99
2023-04-27T02:11:19.174Z,2.31
2023-04-27T02:12:41.003Z,1.63
2023-04-27T02:14:02.649Z,1.84
2023-04-27T02:15:24.128Z,1.81
2023-04-27T02:16:47.119Z,2.13
2023-04-27T02:19:30.779Z,2.05
2023-04-27T02:20:52.593Z,2.30
2023-04-27T02:22:14.895Z,2.44
2023-04-27T02:23:36.650Z,2.48
2023-04-27T02:25:00.438Z,2.54
2023-04-27T02:26:22.167Z,2.32
2023-04-27T02:27:44.212Z,2.76
2023-04-27T02:29:07.990Z,3.19
2023-04-27T02:30:30.801Z,3.30
2023-04-27T02:31:52.882Z,3.33
2023-04-27T02:33:16.355Z,3.41
2023-04-27T02:35:58.367Z,2.85
2023-04-27T02:37:20.880Z,2.84
2023-04-27T02:38:42.492Z,2.20
2023-04-27T02:40:04.852Z,2.58
2023-04-27T02:41:26.578Z,2.67
2023-04-27T02:42:48.502Z,2.38
2023-04-27T02:44:10.106Z,2.36
2023-04-27T02:46:43.470Z,2.59
2023-04-27T02:48:05.918Z,2.31
2023-04-27T02:49:28.952Z,2.49
2023-04-27T02:50:52.528Z,2.51
2023-04-27T02:52:14.360Z,2.43
2023-04-27T02:53:36.314Z,2.46
2023-04-27T02:54:59.428Z,2.64
2023-04-27T02:56:21.702Z,2.76
2023-04-27T02:57:44.086Z,2.39
2023-04-27T02:59:06.297Z,2.84
2023-04-27T03:00:27.801Z,2.72
2023-04-27T03:01:50.431Z,2.13
2023-04-27T03:03:12.179Z,2.27
2023-04-27T03:04:35.748Z,2.99
2023-04-27T03:05:57.282Z,2.36
2023-04-27T03:07:19.138Z,2.48
2023-04-27T03:08:41.300Z,2.76
2023-04-27T03:10:03.553Z,2.83
2023-04-27T03:11:25.629Z,2.81
2023-04-27T03:12:47.449Z,2.83
2023-04-27T03:14:08.532Z,2.77
2023-04-27T03:15:31.399Z,2.51
2023-04-27T03:16:53.354Z,2.52
2023-04-27T03:18:15.829Z,2.79
2023-04-27T03:19:37.525Z,3.14
2023-04-27T03:21:09.315Z,2.93
2023-04-27T03:22:31.247Z,2.95
2023-04-27T03:23:53.054Z,3.45
2023-04-27T03:25:15.483Z,2.51
2023-04-27T03:26:37.087Z,2.74
2023-04-27T03:27:58.791Z,3.11
2023-04-27T03:29:20.750Z,3.09
2023-04-27T03:30:42.835Z,2.63
2023-04-27T03:32:04.734Z,2.88
2023-04-27T03:33:27.160Z,2.63
2023-04-27T03:34:48.779Z,2.46
2023-04-27T03:36:12.122Z,2.62
2023-04-27T03:37:33.664Z,2.51
2023-04-27T03:38:55.284Z,3.00
2023-04-27T03:40:18.366Z,2.64
2023-04-27T03:41:40.319Z,2.66
2023-04-27T03:43:03.616Z,2.88
2023-04-27T03:44:24.644Z,2.94
2023-04-27T03:45:47.199Z,2.86
2023-04-27T03:47:08.794Z,2.87
2023-04-27T03:48:30.464Z,2.93
2023-04-27T03:49:51.961Z,3.00
2023-04-27T03:51:14.094Z,3.39
2023-04-27T03:52:35.203Z,2.97
2023-04-27T03:53:58.696Z,3.18
2023-04-27T03:55:20.220Z,2.83
2023-04-27T03:56:41.733Z,3.11
2023-04-27T03:58:03.472Z,3.28
2023-04-27T03:59:26.494Z,2.97
2023-04-27T04:00:51.786Z,3.21
2023-04-27T04:02:14.125Z,2.44
2023-04-27T04:03:37.390Z,3.31
2023-04-27T04:06:22.634Z,2.48
2023-04-27T04:07:44.192Z,2.91
2023-04-27T04:09:05.756Z,2.89
2023-04-27T04:10:27.366Z,2.87
2023-04-27T04:11:49.060Z,2.93
2023-04-27T04:13:13.775Z,2.63
2023-04-27T04:14:35.643Z,2.82
2023-04-27T04:16:07.745Z,2.18
2023-04-27T04:17:29.799Z,2.68
2023-04-27T04:18:51.607Z,3.21
2023-04-27T04:20:13.687Z,3.03
2023-04-27T04:21:35.813Z,2.97
2023-04-27T04:22:57.687Z,3.46
2023-04-27T04:24:21.220Z,3.04
2023-04-27T04:27:05.463Z,2.96
2023-04-27T04:28:30.310Z,3.96
2023-04-27T04:29:52.063Z,3.83
2023-04-27T04:31:23.163Z,3.33
2023-04-27T04:32:45.098Z,3.09
2023-04-27T04:34:06.562Z,2.96
2023-04-27T04:35:28.055Z,3.12
2023-04-27T04:36:50.249Z,2.67
2023-04-27T04:38:12.076Z,2.93
2023-04-27T04:39:33.787Z,3.12
2023-04-27T04:40:54.880Z,2.82
2023-04-27T04:42:18.101Z,3.10
2023-04-27T04:43:39.673Z,3.12
2023-04-27T04:45:01.074Z,3.19
2023-04-27T04:46:23.735Z,3.06
2023-04-27T04:47:45.359Z,2.71
2023-04-27T04:49:07.400Z,3.08
2023-04-27T04:50:29.133Z,3.34
2023-04-27T04:51:50.696Z,3.07
2023-04-27T04:53:12.219Z,2.90
2023-04-27T04:54:33.934Z,3.58
2023-04-27T04:55:56.277Z,3.70
2023-04-27T04:57:17.882Z,3.74
2023-04-27T04:58:39.981Z,3.72
2023-04-27T05:00:02.450Z,3.40
2023-04-27T05:01:23.395Z,3.86
2023-04-27T05:02:46.415Z,3.10
2023-04-27T05:04:08.434Z,3.51
2023-04-27T05:05:30.976Z,2.16
2023-04-27T05:06:52.375Z,3.13
2023-04-27T05:08:15.766Z,3.81
2023-04-27T05:09:37.660Z,3.06
2023-04-27T05:11:06.643Z,2.98
2023-04-27T05:12:28.144Z,2.89
2023-04-27T05:13:49.720Z,2.89
2023-04-27T05:15:11.924Z,3.17
2023-04-27T05:16:33.909Z,2.63
2023-04-27T05:17:55.646Z,2.16
2023-04-27T05:19:17.370Z,2.51
2023-04-27T05:20:39.059Z,2.86
2023-04-27T05:22:00.513Z,2.38
2023-04-27T05:23:22.598Z,2.67
2023-04-27T05:24:53.721Z,2.38
2023-04-27T05:27:38.663Z,2.97
2023-04-27T05:29:00.713Z,2.86
2023-04-27T05:30:22.545Z,2.54
2023-04-27T05:31:44.490Z,2.57
2023-04-27T05:33:07.380Z,2.74
2023-04-27T05:35:51.677Z,5.13
2023-04-27T05:37:13.106Z,2.80
2023-04-27T05:38:35.120Z,2.76
2023-04-27T05:40:00.428Z,2.38
2023-04-27T05:41:22.548Z,2.52
2023-04-27T05:42:47.629Z,2.66
2023-04-27T05:44:09.633Z,2.90
2023-04-27T05:45:31.665Z,2.49
2023-04-27T05:46:53.654Z,2.56
2023-04-27T05:48:16.865Z,2.39
2023-04-27T05:49:39.209Z,2.80
2023-04-27T05:51:02.132Z,2.27
2023-04-27T05:52:24.001Z,2.55
2023-04-27T05:53:46.550Z,3.17
2023-04-27T05:55:08.557Z,2.55
2023-04-27T05:56:30.989Z,2.38
2023-04-27T05:58:04.639Z,1.81
2023-04-27T05:59:18.438Z,2.19
2023-04-27T06:00:40.386Z,2.71
2023-04-27T06:02:04.409Z,2.32
2023-04-27T06:04:48.713Z,2.22
2023-04-27T06:06:11.014Z,2.03
2023-04-27T06:07:33.613Z,1.89
2023-04-27T06:08:54.863Z,1.83
2023-04-27T06:10:16.645Z,2.99
2023-04-27T06:11:38.690Z,2.59
2023-04-27T06:13:01.380Z,2.68
2023-04-27T06:14:23.253Z,2.22
2023-04-27T06:15:45.158Z,2.26
2023-04-27T06:17:07.091Z,2.64
2023-04-27T06:18:29.506Z,2.27
2023-04-27T06:19:51.401Z,2.90
2023-04-27T06:21:13.229Z,2.26
2023-04-27T06:22:35.753Z,2.61
2023-04-27T06:23:59.870Z,2.65
2023-04-27T06:25:21.845Z,2.18
2023-04-27T06:28:07.071Z,2.14
2023-04-27T06:29:29.099Z,2.28
2023-04-27T06:30:51.209Z,2.20
2023-04-27T06:32:13.093Z,1.91
2023-04-27T06:33:34.764Z,2.36
2023-04-27T06:34:56.468Z,2.14
2023-04-27T06:36:28.103Z,3.12
2023-04-27T06:37:50.467Z,2.78
2023-04-27T06:39:12.947Z,3.18
2023-04-27T06:40:37.062Z,2.04
2023-04-27T06:41:59.091Z,2.25
2023-04-27T06:43:20.712Z,1.67
2023-04-27T06:44:42.610Z,2.24
2023-04-27T06:46:05.088Z,2.71
2023-04-27T06:47:27.549Z,2.01
2023-04-27T06:48:49.107Z,2.15
2023-04-27T06:50:11.463Z,1.66
2023-04-27T06:51:33.365Z,1.34
2023-04-27T06:52:56.892Z,1.94
2023-04-27T06:54:26.696Z,2.07
2023-04-27T06:55:51.005Z,1.91
2023-04-27T06:57:15.177Z,1.92
2023-04-27T06:58:41.869Z,1.96
2023-04-27T07:00:08.132Z,1.93
2023-04-27T07:01:32.710Z,1.87
2023-04-27T07:04:13.926Z,2.11
2023-04-27T07:05:37.671Z,2.34
2023-04-27T07:07:01.253Z,1.56
2023-04-27T07:08:24.955Z,1.78
2023-04-27T07:09:47.203Z,1.92
2023-04-27T07:11:09.492Z,1.68
2023-04-27T07:12:34.748Z,2.40
2023-04-27T07:13:56.190Z,1.83
2023-04-27T07:15:19.857Z,2.01
2023-04-27T07:16:42.110Z,2.06
2023-04-27T07:18:04.671Z,1.95
2023-04-27T07:19:26.998Z,1.69
2023-04-27T07:20:48.737Z,1.65
2023-04-27T07:22:10.528Z,1.97
2023-04-27T07:23:32.452Z,1.77
2023-04-27T07:24:53.840Z,2.00
2023-04-27T07:26:18.621Z,2.18
2023-04-27T07:27:40.987Z,2.66
2023-04-27T07:29:27.065Z,2.21
2023-04-27T07:30:44.836Z,2.14
2023-04-27T07:32:07.903Z,1.71
2023-04-27T07:33:30.163Z,2.12
2023-04-27T07:34:53.887Z,2.14
2023-04-27T07:36:16.743Z,1.79
2023-04-27T07:37:40.974Z,1.68
2023-04-27T07:39:02.057Z,2.06
2023-04-27T07:40:23.901Z,1.76
2023-04-27T07:41:46.198Z,1.89
2023-04-27T07:43:12.855Z,1.77
2023-04-27T07:44:36.007Z,1.56
2023-04-27T07:45:57.351Z,1.92
2023-04-27T07:47:19.110Z,1.96
2023-04-27T07:48:41.854Z,1.62
2023-04-27T07:50:04.311Z,1.69
2023-04-27T07:51:26.280Z,1.94
2023-04-27T07:52:48.252Z,1.82
2023-04-27T07:54:09.992Z,1.45
2023-04-27T07:55:32.429Z,1.53
2023-04-27T07:56:55.538Z,2.14
2023-04-27T07:58:18.138Z,1.89
2023-04-27T07:59:40.736Z,2.32
2023-04-27T08:01:03.430Z,1.59
2023-04-27T08:02:27.455Z,2.02
2023-04-27T08:03:50.014Z,2.33
2023-04-27T08:06:37.180Z,2.46
2023-04-27T08:09:22.022Z,2.96
2023-04-27T08:10:45.704Z,2.50
2023-04-27T08:13:58.071Z,2.23
2023-04-27T08:16:41.385Z,1.76
2023-04-27T08:18:34.979Z,1.84
2023-04-27T08:19:56.584Z,2.96
2023-04-27T08:21:33.457Z,2.41
2023-04-27T08:23:03.040Z,3.09
2023-04-27T08:26:38.671Z,1.66
2023-04-27T08:28:01.439Z,1.66
2023-04-27T08:35:43.851Z,1.99
2023-04-27T08:40:29.958Z,2.27
2023-04-27T08:54:42.671Z,1.63
2023-04-27T08:57:20.523Z,1.57
2023-04-27T08:58:42.841Z,2.19
2023-04-27T09:00:09.879Z,2.61
2023-04-27T09:02:00.757Z,1.49
2023-04-27T09:07:18.390Z,1.66
2023-04-27T09:10:53.646Z,2.18
2023-04-27T09:12:28.697Z,2.61
2023-04-27T09:13:49.824Z,1.56
2023-04-27T09:15:19.376Z,1.69
2023-04-27T09:16:44.310Z,1.62
2023-04-27T09:18:08.184Z,1.37
2023-04-27T09:19:34.693Z,1.19
2023-04-27T09:20:58.929Z,1.66
2023-04-27T09:22:22.358Z,1.47
2023-04-27T09:23:47.160Z,1.79
2023-04-27T09:25:08.768Z,1.71
2023-04-27T09:26:31.153Z,1.58
2023-04-27T09:27:55.376Z,1.19
2023-04-27T09:29:16.844Z,2.39
2023-04-27T09:30:41.092Z,1.93
2023-04-27T09:32:03.211Z,2.49
2023-04-27T09:33:30.809Z,1.74
2023-04-27T09:34:53.565Z,1.87
2023-04-27T09:36:22.203Z,1.88
2023-04-27T09:37:44.050Z,2.42
2023-04-27T09:40:40.954Z,4.22
2023-04-27T09:44:10.528Z,2.78
2023-04-27T09:49:33.611Z,1.42
2023-04-27T09:52:21.380Z,1.24
2023-04-27T09:54:01.934Z,1.42
2023-04-27T09:55:37.026Z,1.98
2023-04-27T09:57:24.373Z,1.59
2023-04-27T09:59:16.893Z,1.72
2023-04-27T10:00:58.865Z,2.06
2023-04-27T10:02:25.385Z,1.89
2023-04-27T10:04:27.135Z,1.57
2023-04-27T10:06:26.072Z,1.17
2023-04-27T10:07:51.706Z,1.86
2023-04-27T10:09:13.986Z,1.09
2023-04-27T10:10:55.492Z,1.42
2023-04-27T10:15:40.987Z,1.43
2023-04-27T10:17:09.768Z,1.29
2023-04-27T10:20:25.328Z,1.73
2023-04-27T10:22:10.090Z,2.64
2023-04-27T10:23:39.522Z,1.64
2023-04-27T10:25:14.462Z,1.27
2023-04-27T10:26:38.024Z,1.43
2023-04-27T10:28:06.501Z,1.33
2023-04-27T10:29:44.496Z,1.40
2023-04-27T10:31:11.814Z,1.66
2023-04-27T10:32:34.244Z,1.58
2023-04-27T10:34:08.717Z,1.47
2023-04-27T10:35:38.311Z,1.11
2023-04-27T10:37:09.924Z,1.25
2023-04-27T10:40:59.861Z,1.97
2023-04-27T11:03:50.649Z,1.27
2023-04-27T11:05:29.709Z,1.27
2023-04-27T11:08:16.116Z,0.73
2023-04-27T11:09:40.291Z,0.99
2023-04-27T11:11:06.696Z,1.18
2023-04-27T11:14:37.873Z,1.00
2023-04-27T11:55:44.269Z,1.13
2023-04-27T12:22:40.787Z,0.79
2023-04-27T12:44:58.899Z,1.03
2023-04-27T12:51:21.774Z,0.71
2023-04-27T12:52:44.816Z,0.80
2023-04-27T12:55:32.910Z,0.61
2023-04-27T12:56:50.630Z,0.77
2023-04-27T12:58:13.368Z,1.73
2023-04-27T13:02:21.518Z,1.01
2023-04-27T13:04:01.799Z,0.92
2023-04-27T13:08:40.286Z,0.73
2023-04-27T13:10:06.495Z,0.98
2023-04-27T13:11:29.895Z,1.43
2023-04-27T13:13:01.115Z,0.77
2023-04-27T13:14:22.856Z,1.12
2023-04-27T13:15:45.331Z,1.46
2023-04-27T13:19:01.128Z,1.24
2023-04-27T13:20:25.767Z,0.85
2023-04-27T13:23:15.533Z,1.24
2023-04-27T13:24:38.999Z,1.31
2023-04-27T13:36:27.481Z,1.19
2023-04-27T13:37:50.222Z,1.35
2023-04-27T13:39:12.785Z,0.82
2023-04-27T13:40:43.835Z,1.25
2023-04-27T13:42:05.872Z,0.88
2023-04-27T13:43:27.447Z,1.00
2023-04-27T13:44:49.129Z,0.96
2023-04-27T13:46:11.516Z,0.93
2023-04-27T13:47:33.954Z,1.03
2023-04-27T13:48:56.559Z,1.17
2023-04-27T13:50:18.473Z,0.88
2023-04-27T13:51:41.127Z,0.76
2023-04-27T13:53:03.163Z,1.25
2023-04-27T13:54:28.667Z,0.89
2023-04-27T13:57:27.923Z,1.13
2023-04-27T13:58:49.406Z,0.84
2023-04-27T14:00:13.837Z,0.89
2023-04-27T14:01:39.588Z,0.99
2023-04-27T14:03:09.228Z,0.90
2023-04-27T14:06:12.762Z,1.17
2023-04-27T14:07:35.832Z,2.14
2023-04-27T14:08:58.055Z,1.54
2023-04-27T14:10:22.168Z,0.96
2023-04-27T14:11:55.770Z,0.89
2023-04-27T14:13:10.658Z,1.11
2023-04-27T14:14:33.720Z,1.61
2023-04-27T14:15:56.612Z,1.18
2023-04-27T14:17:21.174Z,0.75
2023-04-27T14:23:17.406Z,0.93
2023-04-27T14:24:41.297Z,1.09
2023-04-27T14:26:05.563Z,1.24
2023-04-27T14:27:32.792Z,1.14
2023-04-27T14:28:58.054Z,1.52
2023-04-27T14:37:05.693Z,1.84
2023-04-27T14:45:57.324Z,1.14
2023-04-27T14:47:20.734Z,1.39
2023-04-27T14:48:46.445Z,1.39
2023-04-27T14:50:15.117Z,0.99
2023-04-27T14:51:43.527Z,1.17
2023-04-27T14:53:07.513Z,0.79
2023-04-27T14:54:41.505Z,1.05
2023-04-27T14:56:06.962Z,0.89
2023-04-27T14:57:28.616Z,0.83
2023-04-27T14:58:53.043Z,1.09
2023-04-27T15:00:29.365Z,1.29
2023-04-27T15:01:55.459Z,0.91
2023-04-27T15:03:19.124Z,1.04
2023-04-27T15:04:44.608Z,1.01
2023-04-27T15:06:07.246Z,0.81
2023-04-27T15:07:29.836Z,1.23
2023-04-27T15:10:09.407Z,1.07
2023-04-27T15:11:31.130Z,1.13
2023-04-27T15:12:53.821Z,1.43
2023-04-27T15:14:16.515Z,1.57
2023-04-27T15:15:39.385Z,1.27
2023-04-27T15:17:02.171Z,1.83
2023-04-27T15:18:26.936Z,2.10
2023-04-27T15:19:50.478Z,1.66
2023-04-27T15:21:12.553Z,2.06
2023-04-27T15:22:42.457Z,1.34
2023-04-27T15:24:11.072Z,2.63
2023-04-27T15:25:36.470Z,2.39
2023-04-27T15:26:58.512Z,2.56
2023-04-27T15:46:21.108Z,1.29
2023-04-27T15:59:43.541Z,1.18
2023-04-27T16:02:30.229Z,1.09
2023-04-27T16:03:52.697Z,1.20
2023-04-27T16:05:15.635Z,1.46
2023-04-27T16:06:38.146Z,1.18
2023-04-27T16:08:09.015Z,1.11
2023-04-27T16:09:31.001Z,1.10
2023-04-27T16:10:55.275Z,1.19
2023-04-27T16:12:16.882Z,1.83
2023-04-27T16:13:39.377Z,1.34
2023-04-27T16:15:03.404Z,1.31
2023-04-27T16:17:55.013Z,1.25
2023-04-27T16:19:20.704Z,1.76
2023-04-27T16:20:43.325Z,2.13
2023-04-27T16:22:05.997Z,1.28
2023-04-27T16:23:38.476Z,1.60
2023-04-27T16:25:01.700Z,1.88
2023-04-27T16:26:25.431Z,1.73
2023-04-27T16:29:34.114Z,1.45
2023-04-27T16:30:57.636Z,1.16
2023-04-27T16:32:23.098Z,1.68
2023-04-27T16:33:47.502Z,1.39
2023-04-27T16:35:09.639Z,1.11
2023-04-27T16:36:33.581Z,1.33
2023-04-27T16:37:56.220Z,1.26
2023-04-27T16:39:19.452Z,1.04
2023-04-27T16:40:44.967Z,1.14
2023-04-27T16:42:07.117Z,1.02
2023-04-27T16:43:30.745Z,1.22
2023-04-27T16:44:59.456Z,1.58
2023-04-27T16:46:28.234Z,1.90
2023-04-27T16:47:50.771Z,1.65
2023-04-27T16:49:15.540Z,1.27
2023-04-27T16:50:37.577Z,1.27
2023-04-27T16:51:59.450Z,1.50
2023-04-27T16:53:25.072Z,1.05
2023-04-27T16:54:47.147Z,1.09
2023-04-27T16:57:31.729Z,0.96
2023-04-27T16:59:02.217Z,1.30
2023-04-27T17:00:29.220Z,1.22
2023-04-27T17:01:52.250Z,1.38
2023-04-27T17:03:18.750Z,1.24
2023-04-27T17:04:43.259Z,1.21
2023-04-27T17:06:05.357Z,1.51
2023-04-27T17:07:27.167Z,1.40
2023-04-27T17:08:49.806Z,1.34
2023-04-27T17:10:17.606Z,1.02
2023-04-27T17:11:39.471Z,1.76
2023-04-27T17:13:01.721Z,1.37
2023-04-27T17:14:24.153Z,1.31
2023-04-27T17:15:46.210Z,1.50
2023-04-27T17:17:08.214Z,1.48
2023-04-27T17:18:30.139Z,1.71
2023-04-27T17:19:51.795Z,2.09
2023-04-27T17:21:14.481Z,1.88
2023-04-27T17:22:36.643Z,1.87
2023-04-27T17:23:58.830Z,1.72
2023-04-27T17:25:20.517Z,1.36
2023-04-27T17:26:43.996Z,1.41
2023-04-27T17:28:05.752Z,1.30
2023-04-27T17:29:27.426Z,1.43
2023-04-27T17:30:57.158Z,1.34
2023-04-27T17:32:20.898Z,1.47
2023-04-27T17:33:43.996Z,1.71
2023-04-27T17:35:07.384Z,1.63
2023-04-27T17:36:33.806Z,1.39
2023-04-27T17:37:55.669Z,1.53
2023-04-27T17:39:25.578Z,1.49
2023-04-27T17:40:47.960Z,1.41
2023-04-27T17:42:10.265Z,1.41
2023-04-27T17:43:32.558Z,1.52
2023-04-27T17:44:54.140Z,1.41
2023-04-27T17:46:19.370Z,1.40
2023-04-27T17:47:41.188Z,1.38
2023-04-27T17:49:03.487Z,1.09
2023-04-27T17:51:50.134Z,1.29
2023-04-27T17:53:17.951Z,1.37
2023-04-27T17:54:40.511Z,1.37
2023-04-27T17:56:03.593Z,1.81
2023-04-27T17:57:35.740Z,1.45
2023-04-27T17:58:57.404Z,1.12
2023-04-27T18:00:22.527Z,1.34
2023-04-27T18:01:44.642Z,1.22
2023-04-27T18:03:09.332Z,1.24
2023-04-27T18:04:32.870Z,1.61
2023-04-27T18:05:59.784Z,1.42
2023-04-27T18:07:24.659Z,1.58
2023-04-27T18:08:52.407Z,1.52
2023-04-27T18:10:23.821Z,1.28
2023-04-27T18:11:47.660Z,1.43
2023-04-27T18:13:11.039Z,1.50
2023-04-27T18:15:58.353Z,1.28
2023-04-27T18:17:21.005Z,1.48
2023-04-27T18:18:43.795Z,1.28
2023-04-27T18:20:10.576Z,1.37
2023-04-27T18:21:41.144Z,1.25
2023-04-27T18:23:03.551Z,1.32
2023-04-27T18:24:25.397Z,1.32
2023-04-27T18:25:48.118Z,1.46
2023-04-27T18:27:20.194Z,1.74
2023-04-27T18:28:46.571Z,1.62
2023-04-27T18:30:09.053Z,1.66
2023-04-27T18:31:30.463Z,1.64
2023-04-27T18:32:55.551Z,1.38
2023-04-27T18:34:17.725Z,1.38
2023-04-27T18:35:40.997Z,1.70
2023-04-27T18:37:10.979Z,1.18
2023-04-27T18:38:34.361Z,1.47
2023-04-27T18:39:57.480Z,1.45
2023-04-27T18:41:18.934Z,1.28
2023-04-27T18:42:43.307Z,1.36
2023-04-27T18:44:05.904Z,1.47
2023-04-27T18:45:28.183Z,1.42
2023-04-27T18:48:14.860Z,1.29
2023-04-27T18:49:39.582Z,1.42
2023-04-27T18:51:02.177Z,1.39
2023-04-27T18:52:23.881Z,1.54
2023-04-27T18:53:45.496Z,1.74
2023-04-27T18:55:11.734Z,2.03
2023-04-27T18:56:35.242Z,2.26
2023-04-27T18:57:59.232Z,3.19
2023-04-27T18:59:22.679Z,2.94
2023-04-27T19:00:45.435Z,3.04
2023-04-27T19:02:08.660Z,2.60
2023-04-27T19:03:31.742Z,2.71
2023-04-27T19:05:11.280Z,2.31
2023-04-27T19:06:19.649Z,2.13
2023-04-27T19:07:43.085Z,2.14
2023-04-27T19:09:04.784Z,1.71
2023-04-27T19:10:26.879Z,1.54
2023-04-27T19:12:02.006Z,1.61
2023-04-27T19:13:14.931Z,1.72
2023-04-27T19:14:36.926Z,2.11
2023-04-27T19:15:58.929Z,1.54
2023-04-27T19:17:22.075Z,2.01
2023-04-27T19:20:09.301Z,1.93
2023-04-27T19:21:31.290Z,2.86
2023-04-27T19:22:54.462Z,2.81
2023-04-27T19:24:17.228Z,2.49
2023-04-27T19:25:39.735Z,2.57
2023-04-27T19:27:09.749Z,2.49
2023-04-27T19:28:30.989Z,2.17
2023-04-27T19:29:53.849Z,1.92
2023-04-27T19:31:16.056Z,1.68
2023-04-27T19:32:39.566Z,1.92
2023-04-27T19:34:04.440Z,1.71
2023-04-27T19:35:26.361Z,1.51
2023-04-27T19:36:48.270Z,1.76
2023-04-27T19:38:11.217Z,1.83
2023-04-27T19:39:34.574Z,2.12
2023-04-27T19:40:57.004Z,2.22
2023-04-27T19:42:18.781Z,2.03
2023-04-27T19:43:40.809Z,2.13
2023-04-27T19:45:04.670Z,1.68
2023-04-27T19:46:26.651Z,2.15
2023-04-27T19:47:47.905Z,1.79
2023-04-27T19:49:09.763Z,1.73
2023-04-27T19:50:32.233Z,1.41
2023-04-27T19:52:02.198Z,1.73
2023-04-27T19:53:23.382Z,1.67
2023-04-27T19:54:49.785Z,1.53
2023-04-27T19:56:13.456Z,1.47
2023-04-27T19:57:35.641Z,1.75
2023-04-27T19:58:56.783Z,1.61
2023-04-27T20:00:19.699Z,1.28
2023-04-27T20:01:41.269Z,1.52
2023-04-27T20:03:03.487Z,1.73
2023-04-27T20:04:26.412Z,1.72
2023-04-27T20:05:48.429Z,1.66
2023-04-27T20:07:10.934Z,1.88
2023-04-27T20:08:34.788Z,1.74
2023-04-27T20:09:56.834Z,4.38
2023-04-27T20:11:18.373Z,3.74
2023-04-27T20:12:55.447Z,1.84
2023-04-27T20:14:08.309Z,2.31
2023-04-27T20:15:31.668Z,2.11
2023-04-27T20:16:53.388Z,1.86
2023-04-27T20:18:16.803Z,1.70
2023-04-27T20:19:38.369Z,1.76
2023-04-27T20:21:00.810Z,1.77
2023-04-27T20:22:23.804Z,1.62
2023-04-27T20:25:09.034Z,1.83
2023-04-27T20:26:32.582Z,2.36
2023-04-27T20:27:54.169Z,2.39
2023-04-27T20:29:22.420Z,2.66
2023-04-27T20:30:45.766Z,2.59
2023-04-27T20:32:08.158Z,2.46
2023-04-27T20:33:32.289Z,2.57
2023-04-27T20:34:55.105Z,2.27
2023-04-27T20:36:18.353Z,2.50
2023-04-27T20:37:41.936Z,2.66
2023-04-27T20:39:05.605Z,2.72
2023-04-27T20:40:27.139Z,3.23
2023-04-27T20:41:48.767Z,3.47
2023-04-27T20:43:12.188Z,3.65
2023-04-27T20:44:34.782Z,3.48
2023-04-27T20:45:56.577Z,3.43
2023-04-27T20:47:20.163Z,3.78
2023-04-27T20:48:41.435Z,4.47
2023-04-27T20:50:05.551Z,4.06
2023-04-27T20:51:28.411Z,2.38
2023-04-27T20:52:50.971Z,2.29
2023-04-27T20:54:13.096Z,2.14
2023-04-27T20:55:35.172Z,2.22
2023-04-27T20:56:57.534Z,2.37
2023-04-27T20:58:19.453Z,1.94
2023-04-27T20:59:41.817Z,1.82
2023-04-27T21:01:03.687Z,1.64
2023-04-27T21:02:25.535Z,1.90
2023-04-27T21:03:48.187Z,1.79
2023-04-27T21:05:11.329Z,1.98
2023-04-27T21:06:33.844Z,2.31
2023-04-27T21:07:56.254Z,1.95
2023-04-27T21:09:19.389Z,1.63
2023-04-27T21:10:41.517Z,2.18
2023-04-27T21:12:05.035Z,2.10
2023-04-27T21:13:26.899Z,2.19
2023-04-27T21:14:49.747Z,2.08
2023-04-27T21:16:12.048Z,2.29
2023-04-27T21:17:35.131Z,1.99
2023-04-27T21:20:17.881Z,3.82
2023-04-27T21:21:39.077Z,5.18
2023-04-27T21:23:02.275Z,2.78
2023-04-27T21:24:24.076Z,3.39
2023-04-27T21:25:46.681Z,3.92
2023-04-27T21:27:10.453Z,2.96
2023-04-27T21:28:31.618Z,3.86
2023-04-27T21:29:53.641Z,3.61
2023-04-27T21:31:15.756Z,3.03
2023-04-27T21:32:38.207Z,3.54
2023-04-27T21:34:00.307Z,2.62
2023-04-27T21:35:23.914Z,2.38
2023-04-27T21:36:45.336Z,2.43
2023-04-27T21:38:07.422Z,2.12
2023-04-27T21:39:29.677Z,2.15
2023-04-27T21:40:51.285Z,2.16
2023-04-27T21:42:13.320Z,1.95
2023-04-27T21:43:35.325Z,2.01
2023-04-27T21:44:57.263Z,1.89
2023-04-27T21:46:19.650Z,1.84
2023-04-27T21:47:41.336Z,2.03
2023-04-27T21:49:03.928Z,2.08
2023-04-27T21:50:25.443Z,2.07
2023-04-27T21:51:47.182Z,1.78
2023-04-27T21:53:08.423Z,1.76
2023-04-27T21:54:30.588Z,2.11
2023-04-27T21:55:53.217Z,1.89
2023-04-27T21:57:14.823Z,1.88
2023-04-27T21:58:36.510Z,2.08
2023-04-27T21:59:59.297Z,2.39
2023-04-27T22:01:21.980Z,2.38
2023-04-27T22:02:44.247Z,2.29
2023-04-27T22:04:06.393Z,2.27
2023-04-27T22:05:29.771Z,2.03
2023-04-27T22:06:51.429Z,2.80
2023-04-27T22:08:13.170Z,2.52
2023-04-27T22:09:35.203Z,2.56
2023-04-27T22:10:57.701Z,2.40
2023-04-27T22:12:19.640Z,2.46
2023-04-27T22:13:43.694Z,2.46
2023-04-27T22:15:08.681Z,2.50
2023-04-27T22:16:30.954Z,2.68
2023-04-27T22:17:53.358Z,2.93
2023-04-27T22:19:15.587Z,2.69
2023-04-27T22:20:39.241Z,3.13
2023-04-27T22:23:23.751Z,2.82
2023-04-27T22:24:45.532Z,2.55
2023-04-27T22:26:08.977Z,2.70
2023-04-27T22:27:42.028Z,2.18
2023-04-27T22:28:55.296Z,2.40
2023-04-27T22:30:17.464Z,2.00
2023-04-27T22:31:39.035Z,2.11
2023-04-27T22:33:02.257Z,2.43
2023-04-27T22:34:24.092Z,2.46
2023-04-27T22:35:45.879Z,2.16
2023-04-27T22:37:07.018Z,1.90
2023-04-27T22:38:28.892Z,2.17
2023-04-27T22:39:50.379Z,2.39
2023-04-27T22:41:11.955Z,2.27
2023-04-27T22:42:34.187Z,2.46
2023-04-27T22:43:55.500Z,2.11
2023-04-27T22:45:17.949Z,2.51
2023-04-27T22:46:39.029Z,2.47
2023-04-27T22:48:01.597Z,2.27
2023-04-27T22:49:23.567Z,2.57
2023-04-27T22:50:45.183Z,2.11
2023-04-27T22:52:07.511Z,2.18
2023-04-27T22:53:28.788Z,2.47
2023-04-27T22:54:50.577Z,2.28
2023-04-27T22:56:12.235Z,2.74
2023-04-27T22:57:34.515Z,2.13
2023-04-27T22:58:56.075Z,2.34
2023-04-27T23:00:17.799Z,2.46
2023-04-27T23:01:39.255Z,2.51
2023-04-27T23:03:01.353Z,2.37
2023-04-27T23:04:24.098Z,2.50
2023-04-27T23:05:46.322Z,2.11
2023-04-27T23:07:08.241Z,2.32
2023-04-27T23:08:30.159Z,2.19